Airfield :
LOGIN :

Register | Disclaimer

   EN    FR    IT 

 










Legend :    VFR   Marginal VFR   IFR   Intensive IFR   Very Intensive IFR
Visi :
Ceiling :
>= 8 km
>= 3000ft
5 to 8 km
1000 to 3000 ft
1500m to 5 km
500 to 1000 ft
800 to 1500m
200 to 500 ft
< 800m
< 200 ft
Symbols :   Thunderstorms  Fog  Heavy snow  Heavy precipitations  Wind > 20 kt
SIGMETs :     Misc.  Thunderstorms  Icing  Turbulence  Mountain Waves  Volcanic Ashes







- Airport Elevation : 1516 ft
- IATA code : AGB


EDMA - Augsburg

CURRENT METAR :
  • 301420Z VRB02KT CAVOK 20/07 Q1025

EXPIRED METARs :
  • 301350Z VRB05KT CAVOK 19/07 Q1025
  • 301320Z VRB05KT CAVOK 19/07 Q1025
  • 301250Z 19005KT 150V220 CAVOK 19/08 Q1026
  • 301220Z VRB03KT 9999 FEW043 18/08 Q1026
  • 301150Z VRB03KT CAVOK 18/07 Q1027
  • 301120Z VRB04KT 9999 FEW040 18/07 Q1027

TAF TAF EDMA
Valid from the 30 at 12:00 until the 30 at 21:00 UTC


301100Z 3012/3021 08006KT 9999 SCT045
No reported NOTAMs for that airfield.



MET'MAP, your aeronautical weather chart ! - Copyright ORBIFLY December 2007 - Disclaimer

ORBIFLY MET'MAP TEAM :

Programming & Development : Alexandra Zaïnal
Concept & Development : Baudouin d'Aumeries
Co-Development & Prog : Marc-Olivier Méhu
Technical & hardware support : Manuel Goepfert

Contact : metmap@orbifly.com




SOURCES & CREDITS :

   NOAA